Time;durP1;ratioP1;P1;durP2;ratioP2;P2;SDS_P1;SDS_P2;PMS_P1;PMS_P2;Temp;Humidity;BMP_temperature;BMP_pressure;BME280_temperature;BME280_humidity;BME280_pressure;Samples;Min_cycle;Max_cycle;Signal;HPM_P1;HPM_P2
2024/01/19 00:01:29;;;;;;;3.90;3.60;;;;;;;9.73;78.98;93814.53;5138404;27;20187;-68
2024/01/19 00:03:57;;;;;;;4.35;3.95;;;;;;;9.69;79.27;93813.69;5138492;27;20255;-68
2024/01/19 00:06:24;;;;;;;4.45;4.05;;;;;;;9.66;79.65;93825.47;5138743;27;20215;-68
2024/01/19 00:08:51;;;;;;;5.20;4.65;;;;;;;9.55;80.14;93819.84;5139138;27;20314;-69
2024/01/19 00:11:19;;;;;;;5.25;4.85;;;;;;;9.55;80.66;93835.56;5138047;27;20186;-69
2024/01/19 00:13:46;;;;;;;4.80;4.40;;;;;;;9.55;80.81;93821.78;5138492;27;20248;-69
2024/01/19 00:16:13;;;;;;;4.95;4.38;;;;;;;9.54;80.99;93840.28;5138650;27;20199;-69
2024/01/19 00:18:40;;;;;;;5.20;4.70;;;;;;;9.49;82.04;93826.84;5137864;27;20695;-69
2024/01/19 00:21:07;;;;;;;6.63;6.03;;;;;;;9.46;82.21;93840.56;5138129;27;20226;-69
2024/01/19 00:23:34;;;;;;;6.45;5.85;;;;;;;9.45;81.97;93828.78;5138365;27;20195;-69
2024/01/19 00:26:01;;;;;;;5.95;5.35;;;;;;;9.44;82.27;93848.41;5137623;27;20586;-69
2024/01/19 00:28:29;;;;;;;5.95;5.38;;;;;;;9.40;82.45;93851.13;5138022;27;20231;-69
2024/01/19 00:30:56;;;;;;;4.63;4.18;;;;;;;9.38;82.62;93851.50;5137761;27;20260;-69
2024/01/19 00:33:22;;;;;;;5.00;4.60;;;;;;;9.36;83.00;93848.31;5138714;27;20183;-69
2024/01/19 00:35:49;;;;;;;6.15;4.72;;;;;;;9.35;82.88;93848.69;5138440;27;20203;-69
2024/01/19 00:38:16;;;;;;;5.90;4.95;;;;;;;9.37;83.50;93846.38;5137989;27;20191;-69
2024/01/19 00:40:44;;;;;;;6.10;5.50;;;;;;;9.34;83.54;93838.88;5137972;27;20650;-69
2024/01/19 00:43:11;;;;;;;5.95;5.22;;;;;;;9.30;83.97;93844.34;5137436;27;20199;-69
2024/01/19 00:45:40;;;;;;;5.22;4.72;;;;;;;9.31;83.81;93845.91;5137340;27;20187;-69
2024/01/19 00:48:07;;;;;;;4.80;4.30;;;;;;;9.35;84.07;93856.97;5137990;27;20215;-69
2024/01/19 00:50:34;;;;;;;5.55;4.20;;;;;;;9.33;84.01;93851.84;5138136;27;20240;-69
2024/01/19 00:53:01;;;;;;;4.30;3.90;;;;;;;9.36;83.99;93853.03;5138307;27;20203;-69
2024/01/19 00:55:28;;;;;;;4.80;4.40;;;;;;;9.38;84.50;93859.75;5137125;27;20220;-69
2024/01/19 00:57:55;;;;;;;5.13;4.20;;;;;;;9.39;84.62;93844.81;5137093;27;20327;-69
2024/01/19 01:00:22;;;;;;;4.47;4.07;;;;;;;9.39;84.49;93849.53;5137953;27;20195;-69
2024/01/19 01:02:51;;;;;;;5.22;4.60;;;;;;;9.34;84.63;93852.63;5137913;27;20175;-69
2024/01/19 01:05:20;;;;;;;5.70;4.50;;;;;;;9.33;84.88;93867.53;5137773;27;20259;-69
2024/01/19 01:07:47;;;;;;;4.90;4.50;;;;;;;9.34;84.98;93856.16;5137807;27;20283;-69
2024/01/19 01:10:14;;;;;;;5.28;4.88;;;;;;;9.37;85.13;93849.94;5137724;27;20224;-69
2024/01/19 01:12:41;;;;;;;5.80;5.30;;;;;;;9.36;84.87;93858.53;5137414;27;20230;-69
2024/01/19 01:15:08;;;;;;;6.63;6.13;;;;;;;9.38;85.38;93857.00;5137332;27;20203;-69
2024/01/19 01:17:35;;;;;;;7.10;6.60;;;;;;;9.35;85.64;93841.25;5137508;27;20248;-69
2024/01/19 01:20:04;;;;;;;7.40;6.90;;;;;;;9.31;85.63;93867.91;5136732;27;20194;-69
2024/01/19 01:22:32;;;;;;;7.53;6.82;;;;;;;9.33;86.09;93846.34;5136894;27;20603;-69
2024/01/19 01:24:59;;;;;;;8.10;7.40;;;;;;;9.34;85.79;93869.13;5137117;27;20228;-69
2024/01/19 01:27:26;;;;;;;7.13;6.53;;;;;;;9.30;86.01;93862.81;5137002;27;20235;-69
2024/01/19 01:29:53;;;;;;;7.43;6.82;;;;;;;9.33;86.20;93865.59;5136798;27;20212;-69
2024/01/19 01:32:20;;;;;;;8.07;7.38;;;;;;;9.31;85.94;93842.38;5137287;27;20199;-69
2024/01/19 01:34:47;;;;;;;7.68;7.07;;;;;;;9.29;86.23;93853.72;5136350;27;20248;-69
2024/01/19 01:37:15;;;;;;;8.07;7.32;;;;;;;9.27;86.19;93858.84;5137228;27;20692;-69
2024/01/19 01:39:42;;;;;;;9.02;8.25;;;;;;;9.25;86.29;93860.38;5136508;27;20202;-68
2024/01/19 01:42:09;;;;;;;8.27;7.50;;;;;;;9.24;86.24;93867.03;5136318;27;20248;-69
2024/01/19 01:44:36;;;;;;;8.35;7.50;;;;;;;9.24;86.48;93851.31;5137130;27;20230;-69
2024/01/19 01:47:03;;;;;;;7.95;7.35;;;;;;;9.25;86.63;93852.09;5136926;27;20601;-69
2024/01/19 01:49:31;;;;;;;8.23;7.53;;;;;;;9.17;86.51;93848.47;5136754;27;20667;-69
2024/01/19 01:51:58;;;;;;;8.25;7.55;;;;;;;9.14;86.68;93854.72;5136309;27;20251;-69
2024/01/19 01:54:27;;;;;;;8.02;7.43;;;;;;;9.16;86.77;93866.94;5136317;27;20191;-69
2024/01/19 01:56:54;;;;;;;8.13;7.43;;;;;;;9.16;86.97;93847.69;5136795;27;20244;-70
2024/01/19 01:59:21;;;;;;;8.00;7.32;;;;;;;9.14;86.94;93855.50;5137132;27;20581;-69
2024/01/19 02:01:48;;;;;;;7.72;7.03;;;;;;;9.12;87.14;93863.34;5137096;27;20190;-70
2024/01/19 02:04:16;;;;;;;6.90;6.20;;;;;;;9.11;86.91;93856.28;5136631;27;20179;-70
2024/01/19 02:06:43;;;;;;;5.82;5.32;;;;;;;9.13;86.75;93853.94;5135999;27;20206;-70
2024/01/19 02:09:10;;;;;;;5.88;5.47;;;;;;;9.12;86.57;93860.59;5136663;27;20207;-70
2024/01/19 02:11:38;;;;;;;5.75;5.25;;;;;;;9.11;86.16;93864.53;5136047;27;20203;-70
2024/01/19 02:14:09;;;;;;;5.55;4.90;;;;;;;9.11;86.19;93856.28;5136765;27;20202;-70
2024/01/19 02:16:36;;;;;;;5.20;4.72;;;;;;;9.09;85.89;93853.09;5136452;27;20233;-70
2024/01/19 02:19:03;;;;;;;5.78;5.28;;;;;;;9.05;85.70;93863.25;5136157;27;20195;-70
2024/01/19 02:21:30;;;;;;;5.32;4.85;;;;;;;9.01;85.85;93867.94;5135843;27;20240;-70
2024/01/19 02:24:01;;;;;;;5.45;4.95;;;;;;;9.02;85.81;93854.97;5136317;27;20199;-70
2024/01/19 02:26:29;;;;;;;5.00;4.60;;;;;;;8.98;86.02;93852.16;5136174;27;20198;-70
2024/01/19 02:28:56;;;;;;;5.72;5.20;;;;;;;8.92;85.84;93868.19;5135589;27;20291;-70
2024/01/19 02:31:23;;;;;;;5.72;5.22;;;;;;;8.90;86.02;93867.78;5136143;27;20187;-70
2024/01/19 02:33:51;;;;;;;6.38;5.78;;;;;;;8.87;85.95;93868.50;5135823;27;20251;-70
2024/01/19 02:36:18;;;;;;;6.13;5.63;;;;;;;8.84;85.67;93873.97;5136017;27;20198;-70
2024/01/19 02:38:45;;;;;;;7.05;6.43;;;;;;;8.77;85.82;93879.34;5136411;27;20268;-70
2024/01/19 02:41:12;;;;;;;8.65;7.88;;;;;;;8.72;86.17;93877.72;5135835;27;20227;-70
2024/01/19 02:43:40;;;;;;;9.25;8.35;;;;;;;8.70;86.56;93882.00;5135278;27;20183;-69
2024/01/19 02:46:08;;;;;;;10.68;9.75;;;;;;;8.67;86.48;93887.06;5135411;27;20191;-69
2024/01/19 02:48:35;;;;;;;9.75;8.85;;;;;;;8.66;86.63;93901.97;5135402;27;20222;-69
2024/01/19 02:51:02;;;;;;;10.05;9.02;;;;;;;8.62;86.71;93906.63;5135596;28;20251;-69
2024/01/19 02:53:29;;;;;;;7.50;6.80;;;;;;;8.59;87.01;93899.13;5135122;27;20565;-69
2024/01/19 02:55:56;;;;;;;7.88;7.10;;;;;;;8.56;87.01;93910.84;5135839;28;20187;-69
2024/01/19 02:58:23;;;;;;;7.88;7.15;;;;;;;8.55;86.90;93905.72;5135321;28;20255;-68
2024/01/19 03:00:51;;;;;;;8.20;7.40;;;;;;;8.50;86.95;93903.28;5134948;28;20202;-69
2024/01/19 03:03:18;;;;;;;8.60;7.85;;;;;;;8.47;87.21;93915.81;5136154;27;20202;-69
2024/01/19 03:05:45;;;;;;;9.15;8.35;;;;;;;8.44;87.19;93917.31;5135844;27;20236;-68
2024/01/19 03:08:12;;;;;;;9.40;8.52;;;;;;;8.43;87.27;93909.47;5135273;28;20250;-69
2024/01/19 03:10:39;;;;;;;8.80;7.97;;;;;;;8.34;86.81;93895.91;5134907;28;20206;-69
2024/01/19 03:13:06;;;;;;;9.02;8.20;;;;;;;8.29;87.05;93901.75;5135386;28;20244;-69
2024/01/19 03:15:33;;;;;;;7.00;6.38;;;;;;;8.31;87.38;93902.16;5134844;28;20190;-69
2024/01/19 03:18:02;;;;;;;6.90;6.20;;;;;;;8.34;87.57;93901.41;5136042;27;20172;-69
2024/01/19 03:20:29;;;;;;;6.32;5.90;;;;;;;8.39;87.79;93906.66;5135065;28;20199;-69
2024/01/19 03:22:56;;;;;;;6.53;5.93;;;;;;;8.42;87.71;93892.19;5135259;28;20220;-69
2024/01/19 03:25:22;;;;;;;6.85;6.25;;;;;;;8.42;87.57;93911.41;5135837;28;20187;-69
2024/01/19 03:27:49;;;;;;;6.47;5.82;;;;;;;8.42;87.61;93883.13;5134749;28;20287;-69
2024/01/19 03:30:17;;;;;;;6.10;5.55;;;;;;;8.42;87.64;93896.88;5134749;28;20255;-69
2024/01/19 03:32:44;;;;;;;5.90;5.35;;;;;;;8.37;88.26;93888.91;5135913;28;20183;-69
2024/01/19 03:35:12;;;;;;;6.25;5.32;;;;;;;8.34;87.77;93901.41;5135917;27;20271;-69
2024/01/19 03:37:39;;;;;;;5.57;5.10;;;;;;;8.38;87.90;93910.53;5135040;28;20199;-69
2024/01/19 03:40:09;;;;;;;5.70;5.20;;;;;;;8.37;87.92;93919.13;5135834;27;20520;-69
2024/01/19 03:42:36;;;;;;;5.70;5.18;;;;;;;8.33;87.78;93908.09;5134916;28;20194;-69
2024/01/19 03:45:04;;;;;;;5.53;5.03;;;;;;;8.27;87.79;93906.00;5135731;28;20191;-69
2024/01/19 03:47:31;;;;;;;5.65;5.03;;;;;;;8.25;87.81;93905.59;5135103;28;20219;-69
2024/01/19 03:49:58;;;;;;;8.50;7.70;;;;;;;8.21;87.57;93922.00;5135362;28;20195;-69
2024/01/19 03:52:27;;;;;;;9.70;8.70;;;;;;;8.19;87.61;93916.88;5135579;28;20546;-69
2024/01/19 03:54:54;;;;;;;9.20;8.40;;;;;;;8.19;88.06;93914.13;5135286;28;20614;-69
2024/01/19 03:57:21;;;;;;;9.85;8.95;;;;;;;8.19;87.95;93916.88;5135410;27;20239;-69
2024/01/19 03:59:48;;;;;;;9.85;8.95;;;;;;;8.20;88.05;93928.63;5134626;28;20643;-69
2024/01/19 04:02:15;;;;;;;8.57;7.85;;;;;;;8.24;87.98;93920.47;5135211;28;20233;-69
2024/01/19 04:04:42;;;;;;;7.07;6.47;;;;;;;8.26;87.75;93899.72;5136420;27;20284;-69
2024/01/19 04:07:09;;;;;;;9.57;8.75;;;;;;;8.29;87.87;93929.22;5139416;27;20277;-69
2024/01/19 04:09:37;;;;;;;6.28;5.85;;;;;;;8.32;87.88;93924.94;5138290;27;20246;-69
2024/01/19 04:12:11;;;;;;;6.22;5.70;;;;;;;8.35;87.63;93913.19;5138616;27;20203;-69
2024/01/19 04:14:39;;;;;;;6.60;6.00;;;;;;;8.34;87.58;93928.09;5138984;27;20259;-69
2024/01/19 04:17:06;;;;;;;5.90;5.30;;;;;;;8.30;87.23;93919.00;5138240;27;20226;-69
2024/01/19 04:19:33;;;;;;;5.30;4.90;;;;;;;8.30;87.29;93935.50;5137852;27;20631;-70
2024/01/19 04:22:00;;;;;;;7.00;6.40;;;;;;;8.31;87.03;93929.63;5138361;27;20196;-69
2024/01/19 04:24:27;;;;;;;5.70;5.20;;;;;;;8.32;87.11;93924.94;5137743;27;20191;-69
2024/01/19 04:26:55;;;;;;;5.68;5.28;;;;;;;8.36;87.20;93925.78;5137893;27;20203;-69
2024/01/19 04:29:22;;;;;;;5.90;5.40;;;;;;;8.32;86.80;93927.69;5137531;27;20235;-69
2024/01/19 04:31:49;;;;;;;5.72;5.22;;;;;;;8.27;86.52;93915.03;5138848;27;20256;-69
2024/01/19 04:34:16;;;;;;;6.10;5.60;;;;;;;8.24;86.69;93920.47;5137808;27;20199;-69
2024/01/19 04:36:45;;;;;;;6.30;5.70;;;;;;;8.22;86.68;93915.34;5137763;27;20195;-69
2024/01/19 04:39:13;;;;;;;7.18;6.47;;;;;;;8.18;86.32;93928.22;5137643;27;20574;-68
2024/01/19 04:41:39;;;;;;;7.68;6.75;;;;;;;8.14;86.54;93932.88;5138336;27;20191;-68
2024/01/19 04:44:08;;;;;;;7.78;6.15;;;;;;;8.15;86.61;93921.50;5137653;27;20199;-69
2024/01/19 04:46:35;;;;;;;7.20;6.50;;;;;;;8.13;86.68;93925.75;5138515;27;20203;-69
2024/01/19 04:49:02;;;;;;;7.43;6.82;;;;;;;8.10;86.40;93926.53;5137886;27;20240;-69
2024/01/19 04:51:29;;;;;;;7.75;6.82;;;;;;;8.08;86.89;93920.59;5138323;27;20191;-69
2024/01/19 04:53:58;;;;;;;9.00;8.20;;;;;;;8.07;86.52;93933.53;5137955;27;20601;-69
2024/01/19 04:56:25;;;;;;;15.50;13.98;;;;;;;8.03;86.58;93927.19;5137986;27;20263;-69
2024/01/19 04:58:52;;;;;;;19.23;17.23;;;;;;;8.03;86.83;93934.63;5137776;27;20191;-69
2024/01/19 05:01:20;;;;;;;14.23;12.82;;;;;;;8.07;86.95;93941.75;5137853;27;20234;-69
2024/01/19 05:03:47;;;;;;;12.52;11.30;;;;;;;8.09;86.54;93941.38;5137894;27;20541;-67
2024/01/19 05:06:14;;;;;;;12.40;11.20;;;;;;;8.14;86.59;93936.41;5137883;27;20192;-69
2024/01/19 05:08:41;;;;;;;10.93;9.93;;;;;;;8.14;86.45;93939.16;5137396;27;20584;-68
2024/01/19 05:11:11;;;;;;;11.52;10.48;;;;;;;8.13;86.57;93940.31;5137813;27;20207;-68
2024/01/19 05:13:38;;;;;;;11.30;10.27;;;;;;;8.12;86.50;93946.16;5137140;27;20194;-68
2024/01/19 05:16:06;;;;;;;10.35;9.30;;;;;;;8.09;86.37;93925.69;5136430;27;20221;-68
2024/01/19 05:18:34;;;;;;;8.82;8.00;;;;;;;8.11;86.44;93928.88;5136796;27;20244;-68
2024/01/19 05:21:01;;;;;;;9.85;8.27;;;;;;;8.12;86.53;93941.44;5136915;27;20207;-68
2024/01/19 05:23:28;;;;;;;8.30;7.50;;;;;;;8.20;86.66;93934.13;5136564;27;20255;-67
2024/01/19 05:25:55;;;;;;;7.07;6.47;;;;;;;8.20;86.74;93945.13;5137396;27;20252;-68
2024/01/19 05:28:22;;;;;;;7.35;6.65;;;;;;;8.15;86.08;93964.66;5136456;27;20330;-68
2024/01/19 05:30:49;;;;;;;7.22;6.63;;;;;;;8.17;86.35;93957.66;5137373;27;20195;-68
2024/01/19 05:33:16;;;;;;;8.02;7.22;;;;;;;8.18;86.12;93958.44;5137343;27;20191;-68
2024/01/19 05:35:45;;;;;;;8.93;8.00;;;;;;;8.12;86.15;93955.19;5136673;27;20187;-68
2024/01/19 05:38:12;;;;;;;8.30;7.47;;;;;;;8.12;86.27;93948.91;5137268;27;20193;-68
2024/01/19 05:40:39;;;;;;;8.43;7.63;;;;;;;8.11;86.42;93970.09;5137548;27;20211;-68
2024/01/19 05:43:06;;;;;;;9.95;9.13;;;;;;;8.04;86.55;93958.97;5136480;27;20622;-68
2024/01/19 05:45:33;;;;;;;9.65;8.75;;;;;;;8.03;86.57;93949.16;5136756;27;20623;-68
2024/01/19 05:48:00;;;;;;;11.07;9.85;;;;;;;7.98;86.14;93946.69;5136048;27;20593;-68
2024/01/19 05:50:27;;;;;;;11.77;10.57;;;;;;;7.93;86.86;93952.47;5136628;27;20186;-68
2024/01/19 05:52:56;;;;;;;10.30;9.20;;;;;;;8.00;86.69;93949.09;5137290;27;20199;-68
2024/01/19 05:55:24;;;;;;;10.35;9.35;;;;;;;8.05;86.19;93960.53;5135940;27;20199;-69
2024/01/19 05:57:51;;;;;;;9.45;8.57;;;;;;;8.06;85.79;93955.84;5135969;27;20199;-69
2024/01/19 06:00:18;;;;;;;9.05;7.40;;;;;;;8.07;85.66;93963.75;5136321;27;20195;-69
2024/01/19 06:02:45;;;;;;;8.85;8.05;;;;;;;8.06;85.44;93973.13;5136198;27;20203;-69
2024/01/19 06:05:12;;;;;;;11.77;10.65;;;;;;;8.03;85.41;93965.63;5136415;27;20251;-69
2024/01/19 06:07:39;;;;;;;10.63;9.52;;;;;;;7.96;85.28;93970.97;5136543;27;20251;-69
2024/01/19 06:10:09;;;;;;;12.90;11.40;;;;;;;7.95;85.65;93955.63;5136552;27;20210;-69
2024/01/19 06:12:36;;;;;;;11.63;10.52;;;;;;;7.93;85.30;93977.19;5136619;27;20205;-69
2024/01/19 06:15:03;;;;;;;11.10;10.00;;;;;;;7.91;85.03;93979.50;5135791;27;20187;-69
2024/01/19 06:17:30;;;;;;;12.50;11.40;;;;;;;7.88;85.95;93966.47;5136423;27;20259;-69
2024/01/19 06:19:57;;;;;;;13.35;12.25;;;;;;;7.88;86.04;93992.00;5135581;27;20671;-69
2024/01/19 06:22:25;;;;;;;15.82;14.43;;;;;;;7.86;86.36;93974.31;5136030;27;20213;-69
2024/01/19 06:24:52;;;;;;;15.93;14.55;;;;;;;7.85;86.12;93995.47;5136996;27;20206;-69
2024/01/19 06:27:22;;;;;;;16.02;14.52;;;;;;;7.84;86.28;93987.59;5135427;27;20209;-69
2024/01/19 06:29:49;;;;;;;15.18;13.77;;;;;;;7.83;86.57;93992.28;5136560;27;20267;-70
2024/01/19 06:32:16;;;;;;;14.13;12.73;;;;;;;7.83;86.65;93988.75;5136280;27;20198;-70
2024/01/19 06:34:44;;;;;;;14.20;12.90;;;;;;;7.83;86.75;94005.22;5135360;27;20191;-69
2024/01/19 06:37:11;;;;;;;13.27;12.07;;;;;;;7.86;86.62;94010.00;5135686;27;20190;-69
2024/01/19 06:39:38;;;;;;;12.45;11.35;;;;;;;7.83;86.20;94013.47;5135782;27;20217;-69
2024/01/19 06:42:05;;;;;;;12.23;11.23;;;;;;;7.84;86.49;94004.06;5135306;27;20631;-69
2024/01/19 06:44:34;;;;;;;12.15;10.95;;;;;;;7.81;86.31;94002.84;5135139;27;20224;-69
2024/01/19 06:47:01;;;;;;;10.55;9.60;;;;;;;7.83;86.66;94016.19;5136112;27;20516;-69
2024/01/19 06:49:28;;;;;;;10.75;9.73;;;;;;;7.84;86.35;94028.75;5135422;27;20279;-69
2024/01/19 06:51:55;;;;;;;9.65;8.75;;;;;;;7.84;86.49;94043.31;5135359;28;20183;-69
2024/01/19 06:54:22;;;;;;;10.18;9.25;;;;;;;7.86;86.49;94026.47;5135646;27;20183;-69
2024/01/19 06:56:49;;;;;;;10.50;9.50;;;;;;;7.90;86.49;94047.34;5136368;27;20191;-70
2024/01/19 06:59:16;;;;;;;10.18;9.18;;;;;;;7.95;86.23;94030.59;5135952;28;20195;-69
2024/01/19 07:01:44;;;;;;;11.02;10.02;;;;;;;7.97;86.16;94025.53;5135635;28;20251;-69
2024/01/19 07:04:11;;;;;;;10.80;9.82;;;;;;;8.01;86.03;94055.00;5135215;28;20256;-69
2024/01/19 07:06:38;;;;;;;10.52;9.55;;;;;;;8.02;85.66;94027.16;5135822;28;20191;-69
2024/01/19 07:09:06;;;;;;;9.25;8.45;;;;;;;8.07;85.85;94051.63;5135475;28;20277;-69
2024/01/19 07:11:33;;;;;;;9.40;8.50;;;;;;;8.12;85.48;94042.28;5135170;28;20187;-69
2024/01/19 07:14:03;;;;;;;10.38;9.38;;;;;;;8.15;85.42;94050.59;5135208;28;20297;-69
2024/01/19 07:16:30;;;;;;;9.80;8.90;;;;;;;8.18;85.43;94043.59;5135048;28;20216;-69
2024/01/19 07:18:58;;;;;;;11.32;9.48;;;;;;;8.21;85.37;94048.38;5135300;28;20226;-69
2024/01/19 07:21:25;;;;;;;9.50;8.60;;;;;;;8.20;85.27;94044.78;5135471;28;20195;-69
2024/01/19 07:23:52;;;;;;;10.32;9.35;;;;;;;8.25;85.19;94040.19;5135627;28;20203;-69
2024/01/19 07:26:20;;;;;;;9.63;8.82;;;;;;;8.27;85.07;94044.16;5135096;28;20222;-69
2024/01/19 07:28:47;;;;;;;9.90;8.90;;;;;;;8.31;85.25;94030.47;5134634;28;20235;-69
2024/01/19 07:31:14;;;;;;;9.88;8.98;;;;;;;8.31;85.26;94028.53;5135525;28;20191;-69
2024/01/19 07:33:41;;;;;;;9.80;8.82;;;;;;;8.32;84.96;94038.38;5134748;28;20295;-69
2024/01/19 07:36:12;;;;;;;9.35;8.55;;;;;;;8.37;85.10;94043.59;5135383;28;20195;-69
2024/01/19 07:38:39;;;;;;;9.75;8.85;;;;;;;8.44;85.14;94051.19;5135616;27;20214;-69
2024/01/19 07:41:07;;;;;;;11.13;10.15;;;;;;;8.52;84.83;94039.16;5139223;27;20248;-69
2024/01/19 07:43:34;;;;;;;10.88;9.85;;;;;;;8.53;84.40;94057.22;5139518;27;20229;-69
2024/01/19 07:46:01;;;;;;;10.93;9.30;;;;;;;8.53;84.50;94050.94;5139408;27;20195;-69
2024/01/19 07:48:28;;;;;;;10.50;9.50;;;;;;;8.58;84.83;94051.44;5139341;27;20195;-69
2024/01/19 07:50:55;;;;;;;11.65;10.52;;;;;;;8.65;84.55;94059.03;5139335;27;20195;-69
2024/01/19 07:53:26;;;;;;;11.10;10.00;;;;;;;8.74;84.52;94056.81;5139072;27;20199;-69
2024/01/19 07:55:53;;;;;;;11.90;10.75;;;;;;;8.81;84.24;94050.66;5138887;27;20198;-69
2024/01/19 07:58:21;;;;;;;12.38;11.18;;;;;;;8.87;83.67;94054.72;5139524;27;20236;-69
2024/01/19 08:00:48;;;;;;;23.35;21.40;;;;;;;8.89;83.66;94049.63;5138575;27;20186;-69
2024/01/19 08:03:15;;;;;;;25.42;23.23;;;;;;;8.95;83.32;94056.41;5138550;27;20183;-69
2024/01/19 08:05:42;;;;;;;32.70;29.88;;;;;;;9.03;82.96;94051.81;5138216;27;20206;-69
2024/01/19 08:08:09;;;;;;;28.85;26.25;;;;;;;9.07;82.86;94049.91;5138322;27;20230;-69
2024/01/19 08:10:38;;;;;;;28.98;26.48;;;;;;;9.16;83.26;94056.75;5138540;27;20549;-69
2024/01/19 08:13:05;;;;;;;27.75;25.33;;;;;;;9.22;82.73;94059.97;5138147;27;20282;-69
2024/01/19 08:15:32;;;;;;;27.63;25.23;;;;;;;9.27;82.47;94054.19;5138315;27;20256;-69
2024/01/19 08:17:59;;;;;;;24.67;22.58;;;;;;;9.36;82.38;94059.41;5138456;27;20260;-69
2024/01/19 08:20:26;;;;;;;25.10;23.00;;;;;;;9.42;82.07;94062.66;5138511;27;20288;-69
2024/01/19 08:22:55;;;;;;;20.88;18.98;;;;;;;9.50;82.17;94069.84;5138798;27;20214;-69
2024/01/19 08:25:22;;;;;;;19.55;17.75;;;;;;;9.57;81.43;94078.22;5138994;27;20191;-69
2024/01/19 08:27:51;;;;;;;18.30;16.70;;;;;;;9.65;81.20;94080.69;5137766;27;20322;-69
2024/01/19 08:30:19;;;;;;;15.43;14.00;;;;;;;9.77;81.14;94084.44;5137671;27;20301;-69
2024/01/19 08:32:46;;;;;;;14.93;13.60;;;;;;;9.92;80.88;94083.47;5138315;27;20223;-69
2024/01/19 08:35:13;;;;;;;13.63;12.27;;;;;;;10.02;80.18;94082.00;5137962;27;20195;-69
2024/01/19 08:37:42;;;;;;;13.93;12.65;;;;;;;10.05;79.36;94079.28;5138102;27;20566;-69
2024/01/19 08:40:11;;;;;;;13.32;12.13;;;;;;;10.16;78.88;94082.19;5138060;27;20201;-69
2024/01/19 08:42:39;;;;;;;12.75;11.57;;;;;;;10.32;78.57;94080.06;5138601;27;20234;-69
2024/01/19 08:45:08;;;;;;;12.70;11.50;;;;;;;10.43;78.02;94071.16;5138811;27;20226;-69
2024/01/19 08:47:36;;;;;;;12.13;10.98;;;;;;;10.45;77.04;94090.84;5137428;27;20187;-69
2024/01/19 08:50:03;;;;;;;10.80;9.82;;;;;;;10.44;76.65;94095.56;5137329;27;20305;-69
2024/01/19 08:52:30;;;;;;;11.63;10.63;;;;;;;10.43;76.82;94087.69;5138061;27;20191;-70
2024/01/19 08:54:58;;;;;;;13.75;12.35;;;;;;;10.44;77.18;94111.31;5138566;27;20195;-70
2024/01/19 08:57:25;;;;;;;13.82;12.55;;;;;;;10.46;77.22;94082.22;5137548;27;20525;-70
2024/01/19 08:59:52;;;;;;;13.68;12.50;;;;;;;10.52;76.72;94090.94;5138104;27;20195;-69
2024/01/19 09:02:21;;;;;;;14.82;13.48;;;;;;;10.51;76.54;94092.09;5137686;27;20202;-70
2024/01/19 09:04:48;;;;;;;15.95;14.52;;;;;;;10.66;76.68;94079.28;5137850;27;20194;-70
2024/01/19 09:07:15;;;;;;;14.05;12.65;;;;;;;10.77;76.83;94080.19;5137526;27;20202;-70
2024/01/19 09:09:42;;;;;;;11.95;10.95;;;;;;;10.83;76.31;94075.91;5137418;27;20203;-69
2024/01/19 09:12:09;;;;;;;9.05;8.15;;;;;;;10.83;76.17;94089.72;5137831;27;20214;-70
2024/01/19 09:14:36;;;;;;;7.82;7.00;;;;;;;10.80;74.98;94076.66;5136872;27;20218;-68
2024/01/19 09:17:04;;;;;;;8.35;7.32;;;;;;;10.79;75.25;94078.63;5137655;27;20565;-70
2024/01/19 09:19:32;;;;;;;9.65;6.68;;;;;;;10.79;75.40;94072.31;5137604;27;20526;-70
2024/01/19 09:21:59;;;;;;;8.77;5.93;;;;;;;10.84;74.66;94067.25;5137003;27;20237;-70
2024/01/19 09:24:27;;;;;;;7.50;6.10;;;;;;;10.88;74.88;94069.25;5138178;27;20240;-70
2024/01/19 09:26:54;;;;;;;8.18;5.95;;;;;;;11.17;75.29;94048.22;5137021;27;20289;-70
2024/01/19 09:29:21;;;;;;;6.50;5.90;;;;;;;11.41;74.86;94050.41;5137883;27;20277;-70
2024/01/19 09:31:48;;;;;;;17.20;8.07;;;;;;;11.62;74.53;94046.19;5137462;27;20199;-70
2024/01/19 09:34:15;;;;;;;8.40;6.72;;;;;;;11.69;73.39;94046.25;5136569;27;20248;-70
2024/01/19 09:36:44;;;;;;;8.30;6.82;;;;;;;11.65;72.94;94031.63;5137632;27;20256;-70
2024/01/19 09:39:11;;;;;;;7.93;6.88;;;;;;;11.59;73.22;94036.72;5137822;27;20187;-70
2024/01/19 09:41:39;;;;;;;8.20;7.00;;;;;;;11.62;73.47;94037.91;5137515;27;20211;-70
2024/01/19 09:44:10;;;;;;;8.95;6.80;;;;;;;11.65;73.76;94037.16;5137210;27;20199;-70
2024/01/19 09:46:48;;;;;;;7.30;6.65;;;;;;;11.68;74.01;94039.94;5137100;27;20199;-70
2024/01/19 09:49:21;;;;;;;7.80;6.93;;;;;;;11.71;73.96;94027.34;5137024;27;20175;-70
2024/01/19 09:51:56;;;;;;;7.38;6.68;;;;;;;11.76;73.84;94040.78;5136395;27;20577;-70
2024/01/19 09:54:31;;;;;;;8.57;6.35;;;;;;;11.97;73.57;94031.84;5136621;27;20516;-70
2024/01/19 09:57:02;;;;;;;9.20;6.78;;;;;;;12.60;74.26;94025.00;5137236;27;20179;-70
2024/01/19 09:59:30;;;;;;;12.55;9.40;;;;;;;13.65;71.40;94024.72;5136219;27;20210;-70
2024/01/19 10:01:58;;;;;;;9.23;7.20;;;;;;;14.26;65.91;94030.09;5136737;27;20191;-70
2024/01/19 10:04:25;;;;;;;7.00;5.47;;;;;;;14.31;62.20;94026.94;5136136;27;20194;-70
2024/01/19 10:06:54;;;;;;;4.95;3.60;;;;;;;14.24;61.07;94024.19;5137294;27;20187;-70
2024/01/19 10:09:22;;;;;;;5.50;2.63;;;;;;;14.50;57.70;94000.72;5137448;27;20191;-70
2024/01/19 10:11:51;;;;;;;3.42;2.83;;;;;;;14.88;59.50;94010.00;5136610;27;20228;-70
2024/01/19 10:14:19;;;;;;;4.03;3.13;;;;;;;15.58;54.71;94000.78;5136629;27;20559;-70
2024/01/19 10:16:48;;;;;;;3.38;2.78;;;;;;;15.40;54.23;93996.16;5136213;27;20229;-70
2024/01/19 10:19:16;;;;;;;5.35;3.33;;;;;;;15.06;55.10;93996.00;5135512;27;20199;-70
2024/01/19 10:21:43;;;;;;;4.47;3.15;;;;;;;14.86;56.38;93994.97;5136144;27;20198;-70
2024/01/19 10:24:14;;;;;;;5.00;3.22;;;;;;;14.78;56.26;93983.13;5136757;27;20213;-70
2024/01/19 10:26:42;;;;;;;2.30;2.10;;;;;;;14.69;54.80;93980.78;5135734;27;20221;-70
2024/01/19 10:29:13;;;;;;;3.78;2.78;;;;;;;14.69;55.72;93980.78;5135534;27;20321;-70
2024/01/19 10:31:43;;;;;;;3.63;2.90;;;;;;;15.16;56.03;93963.81;5136566;27;20294;-70
2024/01/19 10:34:17;;;;;;;3.45;3.15;;;;;;;15.81;55.08;93975.16;5135445;27;20207;-70
2024/01/19 10:36:45;;;;;;;4.40;2.92;;;;;;;16.52;52.61;93959.59;5135932;27;20197;-70
2024/01/19 10:39:21;;;;;;;3.42;2.33;;;;;;;16.65;49.14;93963.41;5135262;27;20205;-70
2024/01/19 10:41:48;;;;;;;1.88;1.48;;;;;;;16.64;48.78;93952.72;5136547;27;20194;-70
2024/01/19 10:44:17;;;;;;;2.17;1.83;;;;;;;16.91;47.71;93961.09;5136068;27;20195;-70
2024/01/19 10:46:45;;;;;;;2.55;1.63;;;;;;;17.08;46.97;93943.31;5135785;27;20195;-70
2024/01/19 10:49:15;;;;;;;3.28;1.92;;;;;;;16.96;46.36;93936.34;5136006;27;20240;-70
2024/01/19 10:51:43;;;;;;;2.22;1.60;;;;;;;17.06;46.67;93940.94;5135254;27;20686;-70
2024/01/19 10:54:15;;;;;;;3.65;1.90;;;;;;;16.88;46.34;93937.66;5136129;27;20595;-70
2024/01/19 10:56:46;;;;;;;3.13;1.88;;;;;;;16.58;47.59;93933.66;5136272;28;20205;-70
2024/01/19 10:59:14;;;;;;;3.15;1.52;;;;;;;16.49;47.83;93933.41;5135444;28;20202;-70
2024/01/19 11:01:42;;;;;;;3.63;1.52;;;;;;;16.59;48.26;93932.50;5135143;28;20207;-70
2024/01/19 11:04:11;;;;;;;3.25;1.40;;;;;;;16.71;46.88;93933.13;5135038;28;20252;-70
2024/01/19 11:06:38;;;;;;;2.35;1.40;;;;;;;16.52;47.84;93926.22;5135269;28;20187;-70
2024/01/19 11:09:07;;;;;;;2.92;1.90;;;;;;;16.43;47.21;93926.72;5135008;28;20651;-70
2024/01/19 11:11:43;;;;;;;3.63;1.98;;;;;;;16.60;46.72;93917.34;5134921;28;20229;-70
2024/01/19 11:14:18;;;;;;;3.28;2.00;;;;;;;16.49;45.76;93921.50;5137611;27;20179;-70
2024/01/19 11:16:48;;;;;;;3.47;1.80;;;;;;;16.63;46.58;93924.09;5140661;27;20182;-70
2024/01/19 11:19:16;;;;;;;2.58;1.60;;;;;;;16.80;46.46;93911.13;5140350;27;20186;-70
2024/01/19 11:21:44;;;;;;;4.28;1.75;;;;;;;16.91;46.61;93922.88;5139891;27;20263;-70
2024/01/19 11:24:14;;;;;;;3.58;2.00;;;;;;;17.75;46.11;93927.47;5139045;27;20190;-70
2024/01/19 11:26:44;;;;;;;2.22;1.45;;;;;;;18.28;45.24;93922.06;5139724;27;20191;-70
2024/01/19 11:29:20;;;;;;;3.10;1.60;;;;;;;18.74;43.39;93920.31;5138813;27;20242;-70
2024/01/19 11:31:48;;;;;;;2.67;1.40;;;;;;;19.39;42.21;93920.38;5139326;27;20206;-70
2024/01/19 11:34:47;;;;;;;2.55;1.88;;;;;;;19.77;41.47;93925.41;5139696;27;20596;-70
2024/01/19 11:37:44;;;;;;;1.80;1.30;;;;;;;20.10;39.79;93922.53;5077010;28;20569;-70
2024/01/19 11:40:47;;;;;;;3.83;1.70;;;;;;;20.26;39.73;93919.69;5140193;27;20294;-67